sensor_id;sensor_type;location;lat;lon;timestamp;pressure;altitude;pressure_sealevel;temperature;humidity
65718;BME280;52445;52.466;-1.016;2022-07-29T00:02:16;100476.44;;;17.28;53.26
65718;BME280;52445;52.466;-1.016;2022-07-29T00:04:43;100479.06;;;17.28;53.72
65718;BME280;52445;52.466;-1.016;2022-07-29T00:07:09;100475.56;;;17.28;53.86
65718;BME280;52445;52.466;-1.016;2022-07-29T00:09:38;100473.91;;;17.24;53.63
65718;BME280;52445;52.466;-1.016;2022-07-29T00:12:17;100471.31;;;17.24;53.87
65718;BME280;52445;52.466;-1.016;2022-07-29T00:14:52;100473.06;;;17.25;54.06
65718;BME280;52445;52.466;-1.016;2022-07-29T00:17:18;100469.66;;;17.19;53.78
65718;BME280;52445;52.466;-1.016;2022-07-29T00:19:45;100467.94;;;17.18;54.60
65718;BME280;52445;52.466;-1.016;2022-07-29T00:22:12;100466.31;;;17.14;54.48
65718;BME280;52445;52.466;-1.016;2022-07-29T00:24:38;100475.94;;;17.12;54.85
65718;BME280;52445;52.466;-1.016;2022-07-29T00:27:05;100467.25;;;17.12;55.12
65718;BME280;52445;52.466;-1.016;2022-07-29T00:29:32;100464.66;;;17.10;54.60
65718;BME280;52445;52.466;-1.016;2022-07-29T00:32:01;100463.75;;;17.11;55.21
65718;BME280;52445;52.466;-1.016;2022-07-29T00:34:28;100466.38;;;17.11;55.04
65718;BME280;52445;52.466;-1.016;2022-07-29T00:37:14;100463.00;;;17.06;55.76
65718;BME280;52445;52.466;-1.016;2022-07-29T00:39:41;100449.06;;;17.05;55.54
65718;BME280;52445;52.466;-1.016;2022-07-29T00:42:07;100463.16;;;16.96;56.42
65718;BME280;52445;52.466;-1.016;2022-07-29T00:44:37;100469.41;;;16.91;57.23
65718;BME280;52445;52.466;-1.016;2022-07-29T00:47:04;100460.78;;;16.87;56.86
65718;BME280;52445;52.466;-1.016;2022-07-29T00:49:32;100471.28;;;16.84;57.16
65718;BME280;52445;52.466;-1.016;2022-07-29T00:52:01;100470.38;;;16.85;57.08
65718;BME280;52445;52.466;-1.016;2022-07-29T00:54:28;100464.19;;;16.89;57.28
65718;BME280;52445;52.466;-1.016;2022-07-29T00:56:58;100457.22;;;16.90;56.95
65718;BME280;52445;52.466;-1.016;2022-07-29T00:59:26;100457.31;;;16.85;57.54
65718;BME280;52445;52.466;-1.016;2022-07-29T01:02:01;100457.41;;;16.82;57.56
65718;BME280;52445;52.466;-1.016;2022-07-29T01:04:28;100460.03;;;16.82;58.39
65718;BME280;52445;52.466;-1.016;2022-07-29T01:06:56;100461.78;;;16.80;57.90
65718;BME280;52445;52.466;-1.016;2022-07-29T01:09:24;100467.16;;;16.74;58.85
65718;BME280;52445;52.466;-1.016;2022-07-29T01:12:17;100463.66;;;16.75;58.32
65718;BME280;52445;52.466;-1.016;2022-07-29T01:14:45;100461.84;;;16.77;57.95
65718;BME280;52445;52.466;-1.016;2022-07-29T01:30:50;100465.50;;;16.69;59.66
65718;BME280;52445;52.466;-1.016;2022-07-29T01:33:20;100465.59;;;16.66;60.12
65718;BME280;52445;52.466;-1.016;2022-07-29T01:36:13;100472.66;;;16.61;59.70
65718;BME280;52445;52.466;-1.016;2022-07-29T01:38:44;100476.09;;;16.63;59.98
65718;BME280;52445;52.466;-1.016;2022-07-29T01:41:15;100463.91;;;16.62;60.00
65718;BME280;52445;52.466;-1.016;2022-07-29T01:43:52;100464.91;;;16.56;60.64
65718;BME280;52445;52.466;-1.016;2022-07-29T01:46:21;100460.88;;;16.40;61.71
65718;BME280;52445;52.466;-1.016;2022-07-29T01:48:56;100462.25;;;16.58;59.76
65718;BME280;52445;52.466;-1.016;2022-07-29T01:51:31;100458.78;;;16.57;60.18
65718;BME280;52445;52.466;-1.016;2022-07-29T01:54:06;100457.03;;;16.58;60.52
65718;BME280;52445;52.466;-1.016;2022-07-29T01:56:36;100457.91;;;16.58;60.08
65718;BME280;52445;52.466;-1.016;2022-07-29T01:59:06;100464.88;;;16.58;60.33
65718;BME280;52445;52.466;-1.016;2022-07-29T02:01:36;100474.47;;;16.59;60.79
65718;BME280;52445;52.466;-1.016;2022-07-29T02:04:05;100468.34;;;16.58;60.75
65718;BME280;52445;52.466;-1.016;2022-07-29T02:06:34;100469.22;;;16.59;60.42
65718;BME280;52445;52.466;-1.016;2022-07-29T02:09:04;100465.78;;;16.57;60.53
65718;BME280;52445;52.466;-1.016;2022-07-29T02:11:34;100465.75;;;16.58;60.35
65718;BME280;52445;52.466;-1.016;2022-07-29T02:14:03;100464.00;;;16.59;60.65
65718;BME280;52445;52.466;-1.016;2022-07-29T02:16:33;100465.72;;;16.60;60.41
65718;BME280;52445;52.466;-1.016;2022-07-29T02:19:02;100463.91;;;16.62;60.76
65718;BME280;52445;52.466;-1.016;2022-07-29T02:21:32;100464.81;;;16.61;60.56
65718;BME280;52445;52.466;-1.016;2022-07-29T02:24:00;100463.50;;;16.40;61.75
65718;BME280;52445;52.466;-1.016;2022-07-29T02:26:29;100465.81;;;16.54;61.61
65718;BME280;52445;52.466;-1.016;2022-07-29T02:28:57;100459.66;;;16.56;60.81
65718;BME280;52445;52.466;-1.016;2022-07-29T02:31:26;100458.31;;;16.37;61.68
65718;BME280;52445;52.466;-1.016;2022-07-29T02:33:56;100470.25;;;16.52;60.83
65718;BME280;52445;52.466;-1.016;2022-07-29T02:36:24;100467.63;;;16.52;61.37
65718;BME280;52445;52.466;-1.016;2022-07-29T02:38:52;100469.28;;;16.56;60.77
65718;BME280;52445;52.466;-1.016;2022-07-29T02:41:27;100463.16;;;16.57;60.60
65718;BME280;52445;52.466;-1.016;2022-07-29T02:44:02;100460.59;;;16.54;61.08
65718;BME280;52445;52.466;-1.016;2022-07-29T02:46:32;100466.66;;;16.56;61.20
65718;BME280;52445;52.466;-1.016;2022-07-29T02:51:49;100461.53;;;16.92;60.95
65718;BME280;52445;52.466;-1.016;2022-07-29T02:54:26;100458.50;;;16.72;61.25
65718;BME280;52445;52.466;-1.016;2022-07-29T02:56:58;100455.91;;;16.70;61.43
65718;BME280;52445;52.466;-1.016;2022-07-29T02:59:27;100455.03;;;16.69;61.37
65718;BME280;52445;52.466;-1.016;2022-07-29T03:01:58;100456.84;;;16.67;60.86
65718;BME280;52445;52.466;-1.016;2022-07-29T03:04:26;100458.56;;;16.68;61.04
65718;BME280;52445;52.466;-1.016;2022-07-29T03:06:57;100455.13;;;16.66;60.40
65718;BME280;52445;52.466;-1.016;2022-07-29T03:09:25;100455.13;;;16.66;61.33
65718;BME280;52445;52.466;-1.016;2022-07-29T03:11:53;100456.00;;;16.65;60.75
65718;BME280;52445;52.466;-1.016;2022-07-29T03:14:21;100456.03;;;16.64;60.81
65718;BME280;52445;52.466;-1.016;2022-07-29T03:16:49;100451.72;;;16.61;61.14
65718;BME280;52445;52.466;-1.016;2022-07-29T03:19:18;100453.53;;;16.59;60.66
65718;BME280;52445;52.466;-1.016;2022-07-29T03:21:45;100453.59;;;16.56;61.19
65718;BME280;52445;52.466;-1.016;2022-07-29T03:24:31;100455.50;;;16.48;61.04
65718;BME280;52445;52.466;-1.016;2022-07-29T03:26:58;100462.41;;;16.52;61.30
65718;BME280;52445;52.466;-1.016;2022-07-29T03:29:25;100450.28;;;16.48;61.90
65718;BME280;52445;52.466;-1.016;2022-07-29T03:32:04;100445.13;;;16.44;61.37
65718;BME280;52445;52.466;-1.016;2022-07-29T03:34:35;100451.25;;;16.43;61.41
65718;BME280;52445;52.466;-1.016;2022-07-29T03:37:02;100462.66;;;16.39;61.03
65718;BME280;52445;52.466;-1.016;2022-07-29T03:39:31;100459.16;;;16.39;61.64
65718;BME280;52445;52.466;-1.016;2022-07-29T03:42:00;100457.50;;;16.36;61.53
65718;BME280;52445;52.466;-1.016;2022-07-29T03:44:27;100460.19;;;16.31;61.86
65718;BME280;52445;52.466;-1.016;2022-07-29T03:46:57;100467.16;;;16.31;61.75
65718;BME280;52445;52.466;-1.016;2022-07-29T03:49:26;100461.13;;;16.29;61.68
65718;BME280;52445;52.466;-1.016;2022-07-29T03:51:54;100454.16;;;16.28;61.82
65718;BME280;52445;52.466;-1.016;2022-07-29T03:54:21;100448.13;;;16.24;62.24
65718;BME280;52445;52.466;-1.016;2022-07-29T03:56:48;100454.31;;;16.20;62.28
65718;BME280;52445;52.466;-1.016;2022-07-29T03:59:19;100453.53;;;16.16;62.48
65718;BME280;52445;52.466;-1.016;2022-07-29T04:01:47;100459.63;;;16.15;62.08
65718;BME280;52445;52.466;-1.016;2022-07-29T04:04:15;100458.81;;;16.12;62.50
65718;BME280;52445;52.466;-1.016;2022-07-29T04:06:44;100458.88;;;16.09;62.70
65718;BME280;52445;52.466;-1.016;2022-07-29T04:09:13;100467.66;;;16.04;62.82
65718;BME280;52445;52.466;-1.016;2022-07-29T04:11:41;100471.97;;;16.07;62.55
65718;BME280;52445;52.466;-1.016;2022-07-29T04:14:28;100479.84;;;16.05;62.50
65718;BME280;52445;52.466;-1.016;2022-07-29T04:16:54;100467.69;;;16.03;62.75
65718;BME280;52445;52.466;-1.016;2022-07-29T04:19:21;100473.81;;;16.02;62.97
65718;BME280;52445;52.466;-1.016;2022-07-29T04:21:48;100465.97;;;16.02;62.91
65718;BME280;52445;52.466;-1.016;2022-07-29T04:24:15;100459.91;;;16.00;63.23
65718;BME280;52445;52.466;-1.016;2022-07-29T04:26:43;100466.03;;;15.99;63.46
65718;BME280;52445;52.466;-1.016;2022-07-29T04:29:10;100469.56;;;15.96;63.45
65718;BME280;52445;52.466;-1.016;2022-07-29T04:31:38;100470.50;;;15.90;63.73
65718;BME280;52445;52.466;-1.016;2022-07-29T04:34:04;100464.50;;;15.87;64.03
65718;BME280;52445;52.466;-1.016;2022-07-29T04:36:31;100463.63;;;15.86;63.60
65718;BME280;52445;52.466;-1.016;2022-07-29T04:38:58;100467.94;;;15.87;63.47
65718;BME280;52445;52.466;-1.016;2022-07-29T04:41:25;100470.56;;;15.87;63.82
65718;BME280;52445;52.466;-1.016;2022-07-29T04:43:59;100468.78;;;15.89;63.81
65718;BME280;52445;52.466;-1.016;2022-07-29T04:46:33;100467.91;;;15.89;63.80
65718;BME280;52445;52.466;-1.016;2022-07-29T04:48:59;100470.50;;;15.90;63.55
65718;BME280;52445;52.466;-1.016;2022-07-29T04:51:26;100469.63;;;15.90;64.00
65718;BME280;52445;52.466;-1.016;2022-07-29T04:53:53;100472.28;;;15.88;63.60
65718;BME280;52445;52.466;-1.016;2022-07-29T04:56:20;100470.50;;;15.90;63.98
65718;BME280;52445;52.466;-1.016;2022-07-29T04:58:47;100474.00;;;15.89;63.46
65718;BME280;52445;52.466;-1.016;2022-07-29T05:01:13;100475.69;;;15.93;63.50
65718;BME280;52445;52.466;-1.016;2022-07-29T05:03:41;100471.34;;;15.92;63.73
65718;BME280;52445;52.466;-1.016;2022-07-29T05:06:07;100473.06;;;15.95;63.66
65718;BME280;52445;52.466;-1.016;2022-07-29T05:08:34;100480.00;;;15.94;63.79
65718;BME280;52445;52.466;-1.016;2022-07-29T05:11:00;100475.66;;;15.97;63.81
65718;BME280;52445;52.466;-1.016;2022-07-29T05:13:38;100473.88;;;15.99;63.54
65718;BME280;52445;52.466;-1.016;2022-07-29T05:16:12;100480.88;;;15.98;64.01
65718;BME280;52445;52.466;-1.016;2022-07-29T05:18:40;100479.09;;;15.99;63.92
65718;BME280;52445;52.466;-1.016;2022-07-29T05:21:07;100487.06;;;15.91;64.54
65718;BME280;52445;52.466;-1.016;2022-07-29T05:23:33;100485.28;;;15.91;64.66
65718;BME280;52445;52.466;-1.016;2022-07-29T05:26:00;100487.84;;;15.94;64.30
65718;BME280;52445;52.466;-1.016;2022-07-29T05:28:26;100488.69;;;15.98;64.27
65718;BME280;52445;52.466;-1.016;2022-07-29T05:30:53;100489.50;;;16.02;64.33
65718;BME280;52445;52.466;-1.016;2022-07-29T05:33:20;100492.91;;;16.05;64.17
65718;BME280;52445;52.466;-1.016;2022-07-29T05:36:03;100485.94;;;16.06;64.72
65718;BME280;52445;52.466;-1.016;2022-07-29T05:38:32;100491.94;;;16.10;64.53
65718;BME280;52445;52.466;-1.016;2022-07-29T05:40:59;100498.00;;;16.13;64.36
65718;BME280;52445;52.466;-1.016;2022-07-29T05:43:27;100496.19;;;16.15;64.39
65718;BME280;52445;52.466;-1.016;2022-07-29T05:45:54;100502.38;;;16.11;64.81
65718;BME280;52445;52.466;-1.016;2022-07-29T05:48:20;100503.22;;;16.13;63.98
65718;BME280;52445;52.466;-1.016;2022-07-29T05:50:47;100508.31;;;16.19;64.56
65718;BME280;52445;52.466;-1.016;2022-07-29T05:53:13;100507.41;;;16.24;64.01
65718;BME280;52445;52.466;-1.016;2022-07-29T05:55:46;100500.34;;;16.27;64.00
65718;BME280;52445;52.466;-1.016;2022-07-29T05:58:13;100500.38;;;16.26;64.47
65718;BME280;52445;52.466;-1.016;2022-07-29T06:00:39;100497.69;;;16.29;64.45
65718;BME280;52445;52.466;-1.016;2022-07-29T06:03:06;100495.06;;;16.30;64.09
65718;BME280;52445;52.466;-1.016;2022-07-29T06:05:33;100499.38;;;16.33;64.44
65718;BME280;52445;52.466;-1.016;2022-07-29T06:07:59;100504.47;;;16.39;64.68
65718;BME280;52445;52.466;-1.016;2022-07-29T06:10:26;100506.97;;;16.45;64.61
65718;BME280;52445;52.466;-1.016;2022-07-29T06:12:53;100504.28;;;16.49;64.14
65718;BME280;52445;52.466;-1.016;2022-07-29T06:15:20;100504.22;;;16.52;64.11
65718;BME280;52445;52.466;-1.016;2022-07-29T06:17:46;100508.50;;;16.56;64.38
65718;BME280;52445;52.466;-1.016;2022-07-29T06:20:29;100507.50;;;16.63;63.95
65718;BME280;52445;52.466;-1.016;2022-07-29T06:22:58;100507.44;;;16.66;64.35
65718;BME280;52445;52.466;-1.016;2022-07-29T06:25:25;100505.63;;;16.68;64.26
65718;BME280;52445;52.466;-1.016;2022-07-29T06:27:52;100503.78;;;16.72;64.26
65718;BME280;52445;52.466;-1.016;2022-07-29T06:30:18;100508.88;;;16.80;63.76
65718;BME280;52445;52.466;-1.016;2022-07-29T06:32:45;100514.72;;;16.93;64.04
65718;BME280;52445;52.466;-1.016;2022-07-29T06:35:12;100510.94;;;17.05;63.91
65718;BME280;52445;52.466;-1.016;2022-07-29T06:37:59;100511.47;;;17.23;64.01
65718;BME280;52445;52.466;-1.016;2022-07-29T06:40:25;100516.56;;;17.29;63.87
65718;BME280;52445;52.466;-1.016;2022-07-29T06:43:13;100511.34;;;17.29;63.62
65718;BME280;52445;52.466;-1.016;2022-07-29T06:45:39;100514.75;;;17.31;63.73
65718;BME280;52445;52.466;-1.016;2022-07-29T06:48:08;100518.94;;;17.40;63.54
65718;BME280;52445;52.466;-1.016;2022-07-29T06:50:35;100518.66;;;17.51;63.72
65718;BME280;52445;52.466;-1.016;2022-07-29T06:53:03;100516.69;;;17.60;63.85
65718;BME280;52445;52.466;-1.016;2022-07-29T06:55:29;100517.16;;;17.77;63.32
65718;BME280;52445;52.466;-1.016;2022-07-29T06:57:57;100519.28;;;17.97;62.99
65718;BME280;52445;52.466;-1.016;2022-07-29T07:00:24;100519.75;;;18.13;62.39
65718;BME280;52445;52.466;-1.016;2022-07-29T07:02:51;100523.75;;;18.28;62.65
65718;BME280;52445;52.466;-1.016;2022-07-29T07:05:18;100525.03;;;18.45;62.23
65718;BME280;52445;52.466;-1.016;2022-07-29T07:07:44;100520.38;;;18.55;61.93
65718;BME280;52445;52.466;-1.016;2022-07-29T07:10:12;100531.38;;;18.68;61.45
65718;BME280;52445;52.466;-1.016;2022-07-29T07:12:38;100516.22;;;18.78;61.54
65718;BME280;52445;52.466;-1.016;2022-07-29T07:15:05;100519.31;;;18.92;60.87
65718;BME280;52445;52.466;-1.016;2022-07-29T07:17:32;100525.84;;;19.09;61.28
65718;BME280;52445;52.466;-1.016;2022-07-29T07:19:59;100534.94;;;19.25;60.46
65718;BME280;52445;52.466;-1.016;2022-07-29T07:22:25;100532.94;;;19.34;60.83
65718;BME280;52445;52.466;-1.016;2022-07-29T07:24:52;100532.69;;;19.42;60.15
65718;BME280;52445;52.466;-1.016;2022-07-29T07:27:19;100533.31;;;19.50;59.90
65718;BME280;52445;52.466;-1.016;2022-07-29T07:29:45;100531.34;;;19.57;59.49
65718;BME280;52445;52.466;-1.016;2022-07-29T07:32:12;100531.25;;;19.60;59.87
65718;BME280;52445;52.466;-1.016;2022-07-29T07:34:39;100538.97;;;19.64;59.79
65718;BME280;52445;52.466;-1.016;2022-07-29T07:37:06;100539.72;;;19.68;59.76
65718;BME280;52445;52.466;-1.016;2022-07-29T07:39:33;100531.75;;;19.71;59.88
65718;BME280;52445;52.466;-1.016;2022-07-29T07:42:00;100536.00;;;19.75;59.59
65718;BME280;52445;52.466;-1.016;2022-07-29T07:44:26;100530.72;;;19.75;59.26
65718;BME280;52445;52.466;-1.016;2022-07-29T07:46:53;100535.06;;;19.76;59.38
65718;BME280;52445;52.466;-1.016;2022-07-29T07:49:20;100533.97;;;19.84;59.85
65718;BME280;52445;52.466;-1.016;2022-07-29T07:51:47;100531.03;;;19.93;59.68
65718;BME280;52445;52.466;-1.016;2022-07-29T07:54:16;100532.66;;;19.97;59.55
65718;BME280;52445;52.466;-1.016;2022-07-29T07:56:46;100536.97;;;20.00;59.32
65718;BME280;52445;52.466;-1.016;2022-07-29T07:59:18;100531.66;;;20.01;59.10
65718;BME280;52445;52.466;-1.016;2022-07-29T08:01:45;100538.72;;;19.99;59.84
65718;BME280;52445;52.466;-1.016;2022-07-29T08:04:21;100532.59;;;19.99;58.97
65718;BME280;52445;52.466;-1.016;2022-07-29T08:06:54;100541.25;;;20.02;59.11
65718;BME280;52445;52.466;-1.016;2022-07-29T08:09:21;100538.28;;;20.12;58.99
65718;BME280;52445;52.466;-1.016;2022-07-29T08:11:56;100546.34;;;20.33;59.09
65718;BME280;52445;52.466;-1.016;2022-07-29T08:14:23;100543.75;;;20.57;59.09
65718;BME280;52445;52.466;-1.016;2022-07-29T08:16:49;100533.44;;;20.74;58.14
65718;BME280;52445;52.466;-1.016;2022-07-29T08:19:17;100535.19;;;20.99;58.44
65718;BME280;52445;52.466;-1.016;2022-07-29T08:21:44;100526.50;;;21.42;58.42
65718;BME280;52445;52.466;-1.016;2022-07-29T08:24:11;100533.16;;;21.94;58.04
65718;BME280;52445;52.466;-1.016;2022-07-29T08:26:58;100540.25;;;22.33;56.24
65718;BME280;52445;52.466;-1.016;2022-07-29T08:29:24;100541.59;;;22.63;54.60
65718;BME280;52445;52.466;-1.016;2022-07-29T08:31:51;100539.22;;;22.97;54.60
65718;BME280;52445;52.466;-1.016;2022-07-29T08:34:18;100548.66;;;23.20;51.85
65718;BME280;52445;52.466;-1.016;2022-07-29T08:36:53;100545.34;;;23.34;52.04
65718;BME280;52445;52.466;-1.016;2022-07-29T08:39:19;100539.66;;;23.44;51.30
65718;BME280;52445;52.466;-1.016;2022-07-29T08:41:46;100548.25;;;23.67;50.55
65718;BME280;52445;52.466;-1.016;2022-07-29T08:44:23;100540.44;;;23.81;50.04
65718;BME280;52445;52.466;-1.016;2022-07-29T08:46:56;100535.94;;;24.01;50.61
65718;BME280;52445;52.466;-1.016;2022-07-29T08:49:23;100531.25;;;24.24;48.52
65718;BME280;52445;52.466;-1.016;2022-07-29T08:51:51;100530.72;;;24.35;48.37
65718;BME280;52445;52.466;-1.016;2022-07-29T08:54:17;100530.66;;;24.52;47.70
65718;BME280;52445;52.466;-1.016;2022-07-29T08:56:48;100539.22;;;24.74;48.26
65718;BME280;52445;52.466;-1.016;2022-07-29T08:59:19;100536.88;;;25.01;48.37
65718;BME280;52445;52.466;-1.016;2022-07-29T09:01:49;100536.50;;;25.24;47.37
65718;BME280;52445;52.466;-1.016;2022-07-29T09:04:20;100540.13;;;25.53;47.00
65718;BME280;52445;52.466;-1.016;2022-07-29T09:06:49;100536.75;;;25.82;46.08
65718;BME280;52445;52.466;-1.016;2022-07-29T09:09:17;100535.03;;;25.81;45.31
65718;BME280;52445;52.466;-1.016;2022-07-29T09:11:44;100535.78;;;25.69;45.10
65718;BME280;52445;52.466;-1.016;2022-07-29T09:14:13;100538.13;;;25.73;45.78
65718;BME280;52445;52.466;-1.016;2022-07-29T09:19:36;100527.03;;;25.66;44.60
65718;BME280;52445;52.466;-1.016;2022-07-29T09:22:10;100524.91;;;25.57;44.61
65718;BME280;52445;52.466;-1.016;2022-07-29T09:30:05;100519.16;;;25.65;45.02
65718;BME280;52445;52.466;-1.016;2022-07-29T09:32:33;100523.50;;;25.97;44.55
65718;BME280;52445;52.466;-1.016;2022-07-29T09:35:24;100520.13;;;26.24;43.96
65718;BME280;52445;52.466;-1.016;2022-07-29T09:37:51;100514.63;;;26.56;44.08
65718;BME280;52445;52.466;-1.016;2022-07-29T09:40:21;100524.72;;;26.78;43.25
65718;BME280;52445;52.466;-1.016;2022-07-29T09:42:48;100519.69;;;26.88;42.87
65718;BME280;52445;52.466;-1.016;2022-07-29T09:45:32;100522.72;;;26.97;42.06
65718;BME280;52445;52.466;-1.016;2022-07-29T09:48:13;100525.28;;;26.98;41.17
65718;BME280;52445;52.466;-1.016;2022-07-29T09:50:41;100527.84;;;27.00;41.10
65718;BME280;52445;52.466;-1.016;2022-07-29T09:53:08;100523.56;;;27.12;42.00
65718;BME280;52445;52.466;-1.016;2022-07-29T09:55:52;100529.47;;;27.30;42.13
65718;BME280;52445;52.466;-1.016;2022-07-29T09:58:20;100528.75;;;27.41;41.19
65718;BME280;52445;52.466;-1.016;2022-07-29T10:00:50;100536.84;;;27.52;40.28
65718;BME280;52445;52.466;-1.016;2022-07-29T10:03:17;100535.22;;;27.64;40.72
65718;BME280;52445;52.466;-1.016;2022-07-29T10:05:45;100529.38;;;27.85;39.97
65718;BME280;52445;52.466;-1.016;2022-07-29T10:08:12;100523.00;;;28.01;39.93
65718;BME280;52445;52.466;-1.016;2022-07-29T10:10:41;100527.91;;;28.07;39.21
65718;BME280;52445;52.466;-1.016;2022-07-29T10:13:10;100522.50;;;28.21;39.34
65718;BME280;52445;52.466;-1.016;2022-07-29T10:15:43;100524.28;;;28.47;39.76
65718;BME280;52445;52.466;-1.016;2022-07-29T10:18:14;100523.63;;;28.56;38.33
65718;BME280;52445;52.466;-1.016;2022-07-29T10:20:41;100519.75;;;28.73;38.27
65718;BME280;52445;52.466;-1.016;2022-07-29T10:23:09;100526.13;;;28.84;38.55
65718;BME280;52445;52.466;-1.016;2022-07-29T10:25:35;100521.00;;;28.94;37.68
65718;BME280;52445;52.466;-1.016;2022-07-29T10:28:02;100521.19;;;28.91;37.08
65718;BME280;52445;52.466;-1.016;2022-07-29T10:30:29;100525.25;;;28.96;37.95
65718;BME280;52445;52.466;-1.016;2022-07-29T10:38:37;100516.84;;;29.14;36.63
65718;BME280;52445;52.466;-1.016;2022-07-29T10:44:15;100516.59;;;29.66;36.14
65718;BME280;52445;52.466;-1.016;2022-07-29T10:46:45;100525.31;;;29.68;36.23
65718;BME280;52445;52.466;-1.016;2022-07-29T10:49:15;100523.41;;;29.70;35.06
65718;BME280;52445;52.466;-1.016;2022-07-29T10:52:04;100523.53;;;29.44;35.13
65718;BME280;52445;52.466;-1.016;2022-07-29T10:59:50;100523.28;;;29.47;35.26
65718;BME280;52445;52.466;-1.016;2022-07-29T11:10:46;100521.25;;;29.98;34.46
65718;BME280;52445;52.466;-1.016;2022-07-29T11:16:18;100522.00;;;30.12;34.34
65718;BME280;52445;52.466;-1.016;2022-07-29T11:19:18;100513.75;;;30.15;33.25
65718;BME280;52445;52.466;-1.016;2022-07-29T11:21:55;100512.94;;;30.26;34.16
65718;BME280;52445;52.466;-1.016;2022-07-29T11:24:28;100506.50;;;30.29;32.68
65718;BME280;52445;52.466;-1.016;2022-07-29T11:27:15;100515.50;;;30.27;33.37
65718;BME280;52445;52.466;-1.016;2022-07-29T11:32:35;100507.31;;;30.52;33.67
65718;BME280;52445;52.466;-1.016;2022-07-29T11:41:28;100507.44;;;30.39;32.34
65718;BME280;52445;52.466;-1.016;2022-07-29T11:43:59;100506.72;;;30.37;33.23
65718;BME280;52445;52.466;-1.016;2022-07-29T11:46:47;100524.34;;;30.39;33.34
65718;BME280;52445;52.466;-1.016;2022-07-29T11:49:25;100508.19;;;30.41;32.23
65718;BME280;52445;52.466;-1.016;2022-07-29T11:51:59;100506.25;;;30.43;32.06
65718;BME280;52445;52.466;-1.016;2022-07-29T11:54:33;100510.09;;;30.50;32.52
65718;BME280;52445;52.466;-1.016;2022-07-29T11:57:20;100514.72;;;30.60;32.42
65718;BME280;52445;52.466;-1.016;2022-07-29T11:59:47;100502.34;;;30.59;31.82
65718;BME280;52445;52.466;-1.016;2022-07-29T12:02:16;100495.41;;;30.56;32.36
65718;BME280;52445;52.466;-1.016;2022-07-29T12:05:03;100493.81;;;30.53;32.08
65718;BME280;52445;52.466;-1.016;2022-07-29T12:07:49;100501.34;;;30.60;32.33
65718;BME280;52445;52.466;-1.016;2022-07-29T12:10:17;100487.13;;;30.59;32.39
65718;BME280;52445;52.466;-1.016;2022-07-29T12:12:55;100486.41;;;30.69;32.48
65718;BME280;52445;52.466;-1.016;2022-07-29T12:15:22;100486.78;;;30.75;31.62
65718;BME280;52445;52.466;-1.016;2022-07-29T12:18:13;100484.78;;;30.89;32.94
65718;BME280;52445;52.466;-1.016;2022-07-29T12:20:43;100469.88;;;31.08;32.25
65718;BME280;52445;52.466;-1.016;2022-07-29T12:23:11;100472.75;;;31.16;32.14
65718;BME280;52445;52.466;-1.016;2022-07-29T12:25:43;100473.69;;;31.26;31.81
65718;BME280;52445;52.466;-1.016;2022-07-29T12:28:15;100473.13;;;31.23;31.57
65718;BME280;52445;52.466;-1.016;2022-07-29T12:30:52;100468.19;;;31.07;32.53
65718;BME280;52445;52.466;-1.016;2022-07-29T12:35:59;100480.16;;;31.24;32.47
65718;BME280;52445;52.466;-1.016;2022-07-29T12:38:42;100475.38;;;31.27;31.51
65718;BME280;52445;52.466;-1.016;2022-07-29T12:41:10;100465.41;;;31.29;31.56
65718;BME280;52445;52.466;-1.016;2022-07-29T12:43:36;100463.16;;;31.46;31.93
65718;BME280;52445;52.466;-1.016;2022-07-29T12:46:12;100472.28;;;31.65;31.08
65718;BME280;52445;52.466;-1.016;2022-07-29T12:48:42;100460.91;;;31.73;31.36
65718;BME280;52445;52.466;-1.016;2022-07-29T12:51:10;100462.50;;;31.75;32.08
65718;BME280;52445;52.466;-1.016;2022-07-29T12:53:38;100459.47;;;31.90;32.23
65718;BME280;52445;52.466;-1.016;2022-07-29T12:56:05;100459.56;;;32.10;31.66
65718;BME280;52445;52.466;-1.016;2022-07-29T12:58:46;100464.97;;;32.29;32.40
65718;BME280;52445;52.466;-1.016;2022-07-29T13:01:17;100468.84;;;32.47;31.57
65718;BME280;52445;52.466;-1.016;2022-07-29T13:03:55;100470.13;;;32.52;30.92
65718;BME280;52445;52.466;-1.016;2022-07-29T13:06:30;100468.03;;;32.46;30.13
65718;BME280;52445;52.466;-1.016;2022-07-29T13:09:00;100470.34;;;32.29;30.35
65718;BME280;52445;52.466;-1.016;2022-07-29T13:11:29;100468.53;;;31.99;29.86
65718;BME280;52445;52.466;-1.016;2022-07-29T13:13:59;100482.19;;;31.74;30.54
65718;BME280;52445;52.466;-1.016;2022-07-29T13:16:32;100478.16;;;31.59;30.97
65718;BME280;52445;52.466;-1.016;2022-07-29T13:19:04;100473.59;;;31.49;31.01
65718;BME280;52445;52.466;-1.016;2022-07-29T13:21:31;100479.72;;;31.40;30.94
65718;BME280;52445;52.466;-1.016;2022-07-29T13:23:58;100471.41;;;31.22;30.71
65718;BME280;52445;52.466;-1.016;2022-07-29T13:26:24;100471.84;;;31.06;31.42
65718;BME280;52445;52.466;-1.016;2022-07-29T13:28:51;100469.94;;;30.96;31.13
65718;BME280;52445;52.466;-1.016;2022-07-29T13:31:17;100467.81;;;30.78;30.97
65718;BME280;52445;52.466;-1.016;2022-07-29T13:33:44;100463.81;;;30.61;31.94
65718;BME280;52445;52.466;-1.016;2022-07-29T13:36:11;100466.41;;;30.51;31.34
65718;BME280;52445;52.466;-1.016;2022-07-29T13:38:38;100466.91;;;30.34;31.72
65718;BME280;52445;52.466;-1.016;2022-07-29T13:41:05;100474.91;;;30.34;32.26
65718;BME280;52445;52.466;-1.016;2022-07-29T13:43:32;100478.34;;;30.24;31.97
65718;BME280;52445;52.466;-1.016;2022-07-29T13:45:58;100473.94;;;30.12;31.31
65718;BME280;52445;52.466;-1.016;2022-07-29T13:48:25;100479.38;;;29.99;32.20
65718;BME280;52445;52.466;-1.016;2022-07-29T13:50:52;100480.47;;;29.96;32.07
65718;BME280;52445;52.466;-1.016;2022-07-29T13:53:19;100479.88;;;29.93;32.21
65718;BME280;52445;52.466;-1.016;2022-07-29T13:55:52;100475.25;;;29.83;32.61
65718;BME280;52445;52.466;-1.016;2022-07-29T13:58:19;100471.47;;;29.74;31.78